Time;durP1;ratioP1;P1;durP2;ratioP2;P2;SDS_P1;SDS_P2;PMS_P1;PMS_P2;Temp;Humidity;BMP_temperature;BMP_pressure;BME280_temperature;BME280_humidity;BME280_pressure;Samples;Min_cycle;Max_cycle;Signal;HPM_P1;HPM_P2
2022/03/14 00:01:43;;;;;;;17.75;5.90;;;;;;;-0.94;47.97;100771.47;5073589;28;20029;-66
2022/03/14 00:04:13;;;;;;;16.30;6.10;;;;;;;-1.07;48.26;100786.50;5073191;28;20044;-66
2022/03/14 00:06:43;;;;;;;14.20;6.30;;;;;;;-1.07;48.43;100781.50;5073618;28;20403;-67
2022/03/14 00:09:12;;;;;;;17.25;6.68;;;;;;;-1.08;48.98;100785.63;5073471;28;20047;-66
2022/03/14 00:11:41;;;;;;;17.97;6.50;;;;;;;-0.98;48.58;100797.09;5073462;28;20045;-66
2022/03/14 00:14:10;;;;;;;13.70;5.30;;;;;;;-0.93;48.47;100788.22;5073976;28;20768;-66
2022/03/14 00:16:42;;;;;;;14.57;7.03;;;;;;;-0.82;48.21;100788.16;5077120;28;20080;-67
2022/03/14 00:19:14;;;;;;;12.93;6.47;;;;;;;-0.86;47.86;100775.31;5077141;28;20059;-66
2022/03/14 00:21:44;;;;;;;16.17;6.30;;;;;;;-0.85;48.13;100799.59;5077001;28;20040;-66
2022/03/14 00:24:13;;;;;;;13.90;6.43;;;;;;;-0.85;48.17;100800.47;5076898;28;20080;-67
2022/03/14 00:26:43;;;;;;;15.23;6.47;;;;;;;-0.93;48.08;100801.63;5076993;28;20049;-67
2022/03/14 00:29:12;;;;;;;14.63;5.57;;;;;;;-0.87;48.03;100806.16;5076902;28;20048;-67
2022/03/14 00:31:41;;;;;;;16.47;6.83;;;;;;;-0.84;48.09;100803.84;5076873;28;20094;-67
2022/03/14 00:34:10;;;;;;;20.50;7.23;;;;;;;-0.89;47.51;100807.72;5077020;28;20041;-67
2022/03/14 00:36:41;;;;;;;18.53;8.07;;;;;;;-0.96;47.99;100805.59;5077300;28;20433;-67
2022/03/14 00:39:10;;;;;;;21.33;7.57;;;;;;;-0.99;48.06;100812.91;5076697;28;20285;-67
2022/03/14 00:41:39;;;;;;;9.95;4.65;;;;;;;-0.93;48.13;100806.63;5076530;28;20045;-67
2022/03/14 00:44:09;;;;;;;12.48;5.75;;;;;;;-0.97;47.91;100804.72;5076560;28;20044;-66
2022/03/14 00:46:39;;;;;;;11.18;5.70;;;;;;;-1.16;48.41;100821.00;5076857;28;20045;-67
2022/03/14 00:49:09;;;;;;;14.48;6.18;;;;;;;-1.17;48.68;100814.22;5076827;28;20389;-67
2022/03/14 00:51:38;;;;;;;13.60;6.88;;;;;;;-1.08;48.70;100814.84;5076520;28;20033;-67
2022/03/14 00:54:09;;;;;;;15.25;5.85;;;;;;;-1.23;48.94;100813.84;5076449;28;20072;-67
2022/03/14 00:56:38;;;;;;;15.70;6.18;;;;;;;-1.17;48.63;100816.75;5076666;28;20403;-67
2022/03/14 00:59:07;;;;;;;13.02;5.55;;;;;;;-1.10;49.21;100821.38;5076425;28;20117;-67
2022/03/14 01:01:36;;;;;;;15.93;6.43;;;;;;;-1.16;48.79;100826.88;5076243;28;20033;-67
2022/03/14 01:04:05;;;;;;;14.98;5.32;;;;;;;-1.27;49.39;100820.28;5076294;28;20094;-67
2022/03/14 01:06:35;;;;;;;12.85;5.65;;;;;;;-1.37;49.74;100831.34;5076385;28;20060;-67
2022/03/14 01:09:04;;;;;;;14.85;6.28;;;;;;;-1.38;49.54;100834.66;5076187;28;20098;-67
2022/03/14 01:11:35;;;;;;;11.73;5.30;;;;;;;-1.21;49.80;100832.34;5076452;28;20049;-67
2022/03/14 01:14:04;;;;;;;17.23;5.88;;;;;;;-1.22;49.67;100833.13;5076131;28;20459;-67
2022/03/14 01:16:34;;;;;;;14.57;6.60;;;;;;;-1.20;49.65;100829.09;5075966;28;20052;-67
2022/03/14 01:19:03;;;;;;;13.15;5.22;;;;;;;-1.36;50.00;100828.09;5076801;28;20040;-67
2022/03/14 01:21:32;;;;;;;9.97;4.53;;;;;;;-1.36;49.68;100828.09;5075891;28;20040;-67
2022/03/14 01:24:01;;;;;;;14.23;5.13;;;;;;;-1.35;49.70;100828.97;5075825;28;20289;-67
2022/03/14 01:26:30;;;;;;;10.88;4.68;;;;;;;-1.37;50.02;100825.50;5074417;28;20488;-67
2022/03/14 01:29:01;;;;;;;12.20;4.88;;;;;;;-1.31;49.85;100832.53;5076096;28;20095;-67
2022/03/14 01:31:30;;;;;;;10.45;4.93;;;;;;;-1.64;49.91;100779.53;5075768;28;20041;-67
2022/03/14 01:33:59;;;;;;;11.70;5.07;;;;;;;-1.20;49.85;100836.59;5075688;28;20532;-67
2022/03/14 01:36:28;;;;;;;11.03;5.03;;;;;;;-1.27;49.75;100837.81;5075809;28;20072;-68
2022/03/14 01:38:58;;;;;;;11.93;5.07;;;;;;;-1.31;50.01;100830.91;5075601;28;20098;-67
2022/03/14 01:41:28;;;;;;;13.15;5.70;;;;;;;-1.52;50.56;100835.38;5075588;28;20200;-68
2022/03/14 01:43:59;;;;;;;11.70;4.68;;;;;;;-1.54;50.28;100836.94;5075863;28;20083;-67
2022/03/14 01:46:30;;;;;;;11.70;5.03;;;;;;;-1.42;50.51;100832.69;5075337;28;20071;-67
2022/03/14 01:49:00;;;;;;;14.57;5.30;;;;;;;-1.65;50.67;100812.81;5075402;28;20053;-68
2022/03/14 01:51:29;;;;;;;12.27;4.72;;;;;;;-1.63;50.76;100831.28;5074385;28;20068;-67
2022/03/14 01:53:58;;;;;;;9.07;4.45;;;;;;;-1.67;50.98;100834.38;5075619;28;20045;-67
2022/03/14 01:56:28;;;;;;;13.32;5.38;;;;;;;-1.67;50.88;100834.38;5075243;28;20076;-68
2022/03/14 01:58:57;;;;;;;10.43;4.85;;;;;;;-1.55;50.94;100837.69;5075481;28;20036;-67
2022/03/14 02:01:25;;;;;;;13.07;4.93;;;;;;;-1.64;51.08;100839.59;5075357;28;20036;-68
2022/03/14 02:03:56;;;;;;;11.45;4.75;;;;;;;-1.53;51.13;100836.13;5075148;28;20045;-68
2022/03/14 02:06:27;;;;;;;12.55;5.07;;;;;;;-1.76;51.00;100820.41;5075113;28;20076;-68
2022/03/14 02:08:56;;;;;;;12.38;4.90;;;;;;;-1.59;51.14;100843.25;5075655;28;20044;-68
2022/03/14 02:11:26;;;;;;;12.52;4.80;;;;;;;-1.59;50.60;100830.75;5074937;28;20090;-68
2022/03/14 02:13:54;;;;;;;;;;;;;;;-1.71;51.28;100832.44;5075952;28;20070;-68
2022/03/14 02:16:23;;;;;;;11.45;4.68;;;;;;;-1.65;50.51;100836.97;5074874;28;19970;-67
2022/03/14 02:18:52;;;;;;;11.90;4.60;;;;;;;-1.87;50.88;100844.69;5074771;28;20495;-68
2022/03/14 02:21:22;;;;;;;13.03;5.27;;;;;;;-1.88;51.25;100837.09;5074725;28;20487;-68
2022/03/14 02:23:51;;;;;;;11.38;4.90;;;;;;;-1.78;51.35;100850.31;5074634;28;20830;-68
2022/03/14 02:26:22;;;;;;;15.55;5.63;;;;;;;-1.76;51.75;100847.91;5074673;28;20050;-68
2022/03/14 02:28:51;;;;;;;9.87;4.67;;;;;;;-1.62;51.51;100847.19;5074941;28;20032;-68
2022/03/14 02:31:20;;;;;;;11.25;4.57;;;;;;;-1.59;51.25;100848.28;5074528;28;20040;-68
2022/03/14 02:33:49;;;;;;;11.73;4.43;;;;;;;-1.80;51.46;100829.31;5074491;28;20488;-68
2022/03/14 02:36:18;;;;;;;11.25;4.70;;;;;;;-1.78;51.48;100857.84;5074420;28;20045;-68
2022/03/14 02:38:48;;;;;;;12.32;4.00;;;;;;;-1.70;51.22;100851.69;5074599;28;20400;-68
2022/03/14 02:41:17;;;;;;;8.88;4.10;;;;;;;-1.73;51.22;100856.50;5074745;28;20488;-68
2022/03/14 02:43:46;;;;;;;9.52;4.78;;;;;;;-1.77;51.93;100851.16;5074586;28;20072;-68
2022/03/14 02:46:15;;;;;;;10.43;4.65;;;;;;;-1.75;51.66;100857.16;5074569;28;20559;-68
2022/03/14 02:48:44;;;;;;;7.38;3.25;;;;;;;-1.75;51.62;100858.00;5073064;28;20040;-68
2022/03/14 02:51:14;;;;;;;9.95;4.57;;;;;;;-1.79;51.82;100851.06;5074401;28;20044;-68
2022/03/14 02:53:43;;;;;;;11.45;4.97;;;;;;;-1.88;52.04;100862.09;5074442;28;20044;-68
2022/03/14 02:56:13;;;;;;;13.70;5.30;;;;;;;-1.79;51.65;100858.59;5074640;28;20040;-68
2022/03/14 02:58:43;;;;;;;9.82;4.63;;;;;;;-1.75;51.76;100850.50;5074374;28;20090;-68
2022/03/14 03:01:14;;;;;;;11.13;4.88;;;;;;;-1.82;51.87;100862.53;5074317;28;20048;-68
2022/03/14 03:03:44;;;;;;;12.13;5.03;;;;;;;-1.86;51.65;100856.44;5073926;28;20500;-68
2022/03/14 03:06:13;;;;;;;11.20;4.80;;;;;;;-1.88;51.51;100862.97;5073872;28;20044;-68
2022/03/14 03:08:44;;;;;;;8.63;3.70;;;;;;;-2.01;52.02;100870.41;5073953;28;20067;-68
2022/03/14 03:11:14;;;;;;;11.70;4.88;;;;;;;-2.03;52.05;100860.31;5074190;28;20484;-68
2022/03/14 03:13:47;;;;;;;17.85;5.10;;;;;;;-2.15;51.40;100856.97;5073823;28;20048;-68
2022/03/14 03:16:18;;;;;;;13.50;4.75;;;;;;;-2.07;52.38;100865.00;5074196;28;20049;-67
2022/03/14 03:18:47;;;;;;;7.78;3.45;;;;;;;-2.02;52.36;100878.69;5073769;28;20115;-68
2022/03/14 03:21:16;;;;;;;9.33;3.83;;;;;;;-2.02;51.87;100882.03;5073943;28;20561;-68
2022/03/14 03:23:45;;;;;;;12.93;5.25;;;;;;;-2.09;52.64;100884.03;5073398;28;20383;-68
2022/03/14 03:26:18;;;;;;;14.75;4.80;;;;;;;-2.10;52.69;100879.78;5073992;28;20049;-68
2022/03/14 03:28:48;;;;;;;9.60;4.10;;;;;;;-2.10;52.89;100869.78;5074259;28;20044;-68
2022/03/14 03:31:19;;;;;;;11.37;4.73;;;;;;;-2.18;52.62;100881.75;5073569;28;20071;-68
2022/03/14 03:33:50;;;;;;;10.55;4.10;;;;;;;-2.07;52.68;100880.88;5073658;28;20378;-68
2022/03/14 03:36:19;;;;;;;10.77;4.03;;;;;;;-1.99;52.03;100883.88;5073830;28;20091;-68
2022/03/14 03:38:48;;;;;;;10.38;4.70;;;;;;;-1.90;52.04;100889.53;5073461;28;20059;-68
2022/03/14 03:41:19;;;;;;;9.40;4.50;;;;;;;-2.04;52.01;100890.22;5073392;28;20488;-68
2022/03/14 03:43:48;;;;;;;10.45;3.95;;;;;;;-1.86;52.07;100900.59;5072226;28;20071;-68
2022/03/14 03:46:17;;;;;;;9.13;4.47;;;;;;;-1.88;51.89;100890.50;5073427;28;20048;-68
2022/03/14 03:48:46;;;;;;;10.00;4.50;;;;;;;-1.88;51.43;100902.13;5073161;28;20037;-68
2022/03/14 03:51:15;;;;;;;10.43;5.00;;;;;;;-2.08;52.24;100898.25;5073288;28;20048;-68
2022/03/14 03:53:46;;;;;;;11.15;4.15;;;;;;;-2.04;52.28;100895.22;5073290;28;20127;-68
2022/03/14 03:56:14;;;;;;;;;;;;;;;-1.96;52.19;100898.22;5073761;28;20049;-68
2022/03/14 03:58:46;;;;;;;11.88;4.22;;;;;;;-1.94;51.59;100896.72;5073898;28;19927;-68
2022/03/14 04:01:21;;;;;;;19.42;5.75;;;;;;;-1.84;51.19;100909.06;5072354;28;20048;-68
2022/03/14 04:03:54;;;;;;;16.02;5.63;;;;;;;-2.06;51.68;100911.72;5073285;28;20052;-68
2022/03/14 04:06:30;;;;;;;12.77;4.88;;;;;;;-1.95;51.80;100905.84;5073541;28;20472;-68
2022/03/14 04:09:00;;;;;;;7.70;3.75;;;;;;;-2.12;51.63;100913.81;5073265;28;20049;-68
2022/03/14 04:11:29;;;;;;;8.23;4.05;;;;;;;-2.09;51.57;100916.53;5073989;28;20377;-68
2022/03/14 04:14:00;;;;;;;11.18;4.28;;;;;;;-1.94;50.97;100902.56;5073466;28;20051;-68
2022/03/14 04:16:29;;;;;;;8.68;3.72;;;;;;;-1.95;51.36;100909.97;5073710;28;20450;-68
2022/03/14 04:18:59;;;;;;;12.05;4.70;;;;;;;-1.99;51.33;100913.88;5073210;28;20411;-68
2022/03/14 04:21:28;;;;;;;11.35;4.50;;;;;;;-1.85;51.38;100912.34;5073147;28;20115;-68
2022/03/14 04:23:57;;;;;;;12.65;4.72;;;;;;;-1.85;51.20;100915.72;5073086;28;20049;-68
2022/03/14 04:26:26;;;;;;;9.55;4.57;;;;;;;-1.86;51.20;100923.97;5073059;28;20094;-68
2022/03/14 04:28:55;;;;;;;10.10;4.63;;;;;;;-1.90;51.54;100929.56;5073251;28;20388;-68
2022/03/14 04:31:25;;;;;;;8.57;4.10;;;;;;;-1.90;51.41;100917.03;5072979;28;20045;-68
2022/03/14 04:33:54;;;;;;;7.88;3.85;;;;;;;-1.91;51.41;100932.81;5073286;28;20045;-68
2022/03/14 04:36:23;;;;;;;8.90;4.03;;;;;;;-1.89;51.75;100931.25;5072907;28;20044;-68
2022/03/14 04:38:52;;;;;;;10.25;4.70;;;;;;;-1.86;51.84;100931.47;5072922;28;20102;-68
2022/03/14 04:41:21;;;;;;;16.75;5.75;;;;;;;-1.96;51.67;100933.25;5072905;28;20064;-68
2022/03/14 04:43:51;;;;;;;11.15;5.47;;;;;;;-2.05;52.29;100934.38;5073120;28;20404;-68
2022/03/14 04:46:23;;;;;;;9.90;4.60;;;;;;;-2.12;52.49;100943.84;5073200;28;20522;-68
2022/03/14 04:48:53;;;;;;;13.10;4.75;;;;;;;-2.13;52.11;100947.09;5072810;28;20051;-68
2022/03/14 04:51:22;;;;;;;14.45;5.45;;;;;;;-2.09;52.18;100937.41;5072856;28;20118;-68
2022/03/14 04:53:51;;;;;;;8.43;4.60;;;;;;;-2.08;52.61;100948.28;5071763;28;20408;-68
2022/03/14 04:56:20;;;;;;;13.00;4.13;;;;;;;-2.27;52.12;100910.25;5073076;28;20396;-68
2022/03/14 04:58:50;;;;;;;11.07;4.68;;;;;;;-2.15;52.32;100941.13;5072762;28;20032;-68
2022/03/14 05:01:23;;;;;;;18.48;5.57;;;;;;;-2.23;52.67;100942.22;5075212;28;20071;-68
2022/03/14 05:03:54;;;;;;;13.93;5.03;;;;;;;-2.13;52.54;100944.59;5077015;28;20446;-68
2022/03/14 05:06:23;;;;;;;17.00;5.47;;;;;;;-2.07;52.45;100953.41;5076534;28;20071;-69
2022/03/14 05:08:52;;;;;;;11.90;5.27;;;;;;;-2.07;52.58;100935.03;5076470;28;20028;-68
2022/03/14 05:11:22;;;;;;;16.25;5.53;;;;;;;-2.21;52.43;100951.53;5076146;28;20041;-68
2022/03/14 05:13:51;;;;;;;15.15;5.82;;;;;;;-2.07;52.82;100950.03;5076239;28;20514;-69
2022/03/14 05:16:20;;;;;;;14.53;6.37;;;;;;;-2.20;52.96;100947.41;5076341;28;20400;-69
2022/03/14 05:18:50;;;;;;;15.75;5.20;;;;;;;-2.22;52.66;100961.44;5076042;28;20305;-69
2022/03/14 05:21:20;;;;;;;;;;;;;;;-2.13;52.61;100957.09;5076961;28;20081;-69
2022/03/14 05:23:49;;;;;;;11.40;5.07;;;;;;;-2.15;52.96;100967.00;5075902;28;19935;-68
2022/03/14 05:26:18;;;;;;;7.88;4.25;;;;;;;-2.10;52.68;100969.81;5075708;28;20048;-68
2022/03/14 05:28:47;;;;;;;17.10;5.18;;;;;;;-2.09;52.44;100972.41;5075800;28;20094;-69
2022/03/14 05:31:15;;;;;;;17.17;4.47;;;;;;;-2.06;53.16;100976.75;5075978;28;20507;-69
2022/03/14 05:33:45;;;;;;;14.05;5.63;;;;;;;-1.92;52.46;100975.22;5075951;28;20041;-68
2022/03/14 05:36:13;;;;;;;11.98;4.93;;;;;;;-2.00;53.06;100977.19;5076121;28;20407;-69
2022/03/14 05:38:45;;;;;;;17.60;5.90;;;;;;;-1.88;52.91;100983.03;5075923;28;20039;-68
2022/03/14 05:41:14;;;;;;;12.35;5.80;;;;;;;-1.76;52.21;100978.00;5075575;28;20285;-69
2022/03/14 05:43:43;;;;;;;13.98;5.32;;;;;;;-1.74;52.53;100981.47;5075850;28;20499;-68
2022/03/14 05:46:12;;;;;;;12.80;5.93;;;;;;;-1.81;52.68;100990.22;5075974;28;20044;-68
2022/03/14 05:48:41;;;;;;;19.85;6.75;;;;;;;-1.90;53.33;100994.59;5075410;28;20052;-67
2022/03/14 05:51:10;;;;;;;18.70;7.30;;;;;;;-1.92;53.01;100996.09;5075580;28;20033;-67
2022/03/14 05:53:39;;;;;;;16.60;6.60;;;;;;;-1.67;53.12;100998.66;5075639;28;20045;-67
2022/03/14 05:56:09;;;;;;;13.73;4.97;;;;;;;-1.49;52.56;101002.44;5075564;28;20281;-67
2022/03/14 05:58:38;;;;;;;13.65;7.05;;;;;;;-1.30;52.53;100997.00;5075897;28;20044;-67
2022/03/14 06:01:07;;;;;;;14.18;6.82;;;;;;;-1.18;52.16;100998.72;5075507;28;20036;-67
2022/03/14 06:03:37;;;;;;;17.67;7.18;;;;;;;-0.95;51.51;101007.72;5075359;28;20495;-67
2022/03/14 06:06:07;;;;;;;14.37;6.07;;;;;;;-0.78;51.61;101015.59;5075432;28;20041;-67
2022/03/14 06:08:36;;;;;;;16.27;6.90;;;;;;;-0.53;50.52;101015.56;5067470;28;20676;-67
2022/03/14 06:11:07;;;;;;;20.42;7.22;;;;;;;-0.33;50.11;101007.66;5055162;28;20378;-66
2022/03/14 06:13:40;;;;;;;20.38;6.75;;;;;;;-0.24;50.48;101015.75;5072189;28;20504;-64
2022/03/14 06:16:08;;;;;;;16.73;7.03;;;;;;;-0.10;49.89;101009.94;5075159;28;20496;-64
2022/03/14 06:18:37;;;;;;;16.97;6.70;;;;;;;0.07;49.65;101013.53;5075131;28;20036;-64
2022/03/14 06:21:06;;;;;;;13.60;6.82;;;;;;;0.37;49.40;101019.56;5074516;28;20090;-64
2022/03/14 06:23:36;;;;;;;16.85;6.57;;;;;;;0.66;49.05;101022.19;5074508;28;20053;-64
2022/03/14 06:26:05;;;;;;;20.73;10.20;;;;;;;0.95;48.67;101018.88;5074643;28;20036;-64
2022/03/14 06:28:33;;;;;;;31.73;13.67;;;;;;;1.17;48.08;101022.75;5074232;28;20094;-64
2022/03/14 06:31:04;;;;;;;30.27;12.77;;;;;;;1.47;48.12;101020.22;5074436;28;20115;-64
2022/03/14 06:33:33;;;;;;;23.42;10.15;;;;;;;1.82;47.53;101020.56;5074242;28;20037;-64
2022/03/14 06:36:02;;;;;;;23.93;9.00;;;;;;;2.25;47.10;101024.66;5074978;28;20098;-63
2022/03/14 06:38:32;;;;;;;19.20;8.88;;;;;;;2.68;46.56;101023.63;5074612;28;20680;-64
2022/03/14 06:41:02;;;;;;;15.43;7.65;;;;;;;3.01;45.96;101013.50;5074290;28;20045;-63
2022/03/14 06:43:32;;;;;;;16.52;7.47;;;;;;;3.00;46.01;101019.34;5074235;28;20524;-63
2022/03/14 06:46:04;;;;;;;14.85;7.82;;;;;;;3.20;45.16;101029.66;5074650;28;20453;-64
2022/03/14 06:48:39;;;;;;;17.30;8.32;;;;;;;3.27;44.97;101030.81;5074523;28;20052;-63
2022/03/14 06:51:08;;;;;;;18.65;9.23;;;;;;;3.67;44.30;101031.13;5074276;28;20146;-63
2022/03/14 06:53:36;;;;;;;13.30;6.17;;;;;;;3.93;43.33;101036.63;5074157;28;20048;-64
2022/03/14 06:56:06;;;;;;;20.15;8.85;;;;;;;4.16;43.41;101044.41;5074012;28;20040;-63
2022/03/14 06:58:37;;;;;;;18.00;8.30;;;;;;;4.20;43.52;101044.59;5074284;28;20056;-63
2022/03/14 07:01:09;;;;;;;16.85;7.95;;;;;;;4.57;42.83;101042.97;5074308;28;20131;-64
2022/03/14 07:03:38;;;;;;;18.38;7.70;;;;;;;4.86;42.56;101036.69;5073901;28;20045;-63
2022/03/14 07:06:11;;;;;;;21.08;7.85;;;;;;;4.86;41.24;101026.56;5074212;28;20139;-63
2022/03/14 07:08:40;;;;;;;15.43;7.28;;;;;;;5.15;40.78;101031.22;5074126;28;20094;-63
2022/03/14 07:11:09;;;;;;;18.40;8.80;;;;;;;5.30;40.53;101041.97;5073807;28;20032;-64
2022/03/14 07:13:38;;;;;;;20.20;8.77;;;;;;;5.26;40.47;101035.03;5073934;28;20070;-65
2022/03/14 07:16:08;;;;;;;18.30;8.07;;;;;;;5.69;40.15;101030.06;5074450;28;20365;-65
2022/03/14 07:18:37;;;;;;;14.13;7.53;;;;;;;6.01;38.45;101033.94;5074029;28;20071;-65
2022/03/14 07:21:08;;;;;;;22.85;8.50;;;;;;;6.28;38.21;101036.66;5067682;28;20044;-65
2022/03/14 07:23:37;;;;;;;14.23;8.07;;;;;;;6.47;38.28;101042.50;5053340;28;20057;-65
2022/03/14 07:26:05;;;;;;;11.10;6.23;;;;;;;6.64;36.64;101038.03;5053644;28;20611;-64
2022/03/14 07:28:34;;;;;;;23.92;8.98;;;;;;;6.84;36.37;101038.78;5053846;28;20312;-65
2022/03/14 07:31:05;;;;;;;12.65;5.55;;;;;;;6.76;35.01;101043.56;5053656;28;20433;-65
2022/03/14 07:33:35;;;;;;;12.52;7.10;;;;;;;7.01;34.47;101038.53;5053709;28;20047;-64
2022/03/14 07:36:05;;;;;;;18.50;8.73;;;;;;;7.24;34.49;101045.31;5053513;28;20049;-64
2022/03/14 07:38:34;;;;;;;16.80;7.95;;;;;;;7.40;34.30;101047.53;5053337;28;20045;-64
2022/03/14 07:41:03;;;;;;;13.20;7.15;;;;;;;7.78;33.89;101051.34;5053741;28;20055;-64
2022/03/14 07:43:32;;;;;;;11.33;5.77;;;;;;;8.09;32.37;101048.09;5053438;28;20405;-65
2022/03/14 07:46:02;;;;;;;8.93;4.87;;;;;;;8.31;30.76;101045.41;5053137;28;20099;-64
2022/03/14 07:48:31;;;;;;;11.65;5.55;;;;;;;8.44;29.98;101051.75;5053068;28;20079;-64
2022/03/14 07:51:03;;;;;;;8.83;4.87;;;;;;;8.42;27.56;101036.41;5057736;28;20594;-64
2022/03/14 07:53:32;;;;;;;8.85;4.97;;;;;;;8.35;27.89;101051.47;5073365;28;20049;-64
2022/03/14 07:56:01;;;;;;;10.07;4.93;;;;;;;8.43;28.15;101055.09;5071871;28;20434;-64
2022/03/14 07:58:30;;;;;;;10.40;5.13;;;;;;;8.48;28.76;101043.38;5071862;28;20037;-64
2022/03/14 08:00:59;;;;;;;8.70;5.25;;;;;;;8.62;27.85;101052.28;5073164;28;20048;-64
2022/03/14 08:03:28;;;;;;;10.82;5.55;;;;;;;8.81;28.00;101051.97;5073459;28;20033;-65
2022/03/14 08:06:00;;;;;;;9.20;4.70;;;;;;;8.97;27.39;101059.25;5073180;28;20127;-64
2022/03/14 08:08:30;;;;;;;12.45;5.93;;;;;;;9.12;26.79;101056.22;5073177;28;20281;-64
2022/03/14 08:11:01;;;;;;;10.95;5.38;;;;;;;9.14;26.63;101055.44;5073448;28;20079;-64
2022/03/14 08:13:34;;;;;;;9.43;4.97;;;;;;;9.02;26.71;101072.94;5073146;28;20053;-64
2022/03/14 08:16:03;;;;;;;9.73;4.35;;;;;;;9.11;26.86;101074.91;5073002;28;20032;-64
2022/03/14 08:18:32;;;;;;;10.70;5.38;;;;;;;9.23;26.51;101057.41;5073127;28;20044;-64
2022/03/14 08:21:01;;;;;;;6.60;4.25;;;;;;;9.37;26.58;101069.69;5073021;28;20044;-64
2022/03/14 08:23:31;;;;;;;10.37;4.90;;;;;;;9.48;26.28;101072.50;5072830;28;20110;-64
2022/03/14 08:26:00;;;;;;;9.85;5.30;;;;;;;9.64;26.24;101081.41;5073244;28;20467;-64
2022/03/14 08:28:31;;;;;;;8.85;5.15;;;;;;;9.47;25.93;101059.72;5072981;28;20045;-64
2022/03/14 08:31:00;;;;;;;9.63;5.15;;;;;;;9.71;25.72;101070.53;5072934;28;20106;-64
2022/03/14 08:33:30;;;;;;;8.95;4.75;;;;;;;9.74;25.21;101073.19;5072932;28;20102;-64
2022/03/14 08:36:02;;;;;;;13.30;5.63;;;;;;;9.74;26.42;101071.47;5074994;28;20063;-64
2022/03/14 08:38:33;;;;;;;9.80;4.82;;;;;;;9.78;25.30;101082.63;5077007;28;20332;-63
2022/03/14 08:41:02;;;;;;;9.15;4.63;;;;;;;9.76;26.29;101079.16;5070613;28;20373;-63
2022/03/14 08:43:30;;;;;;;9.63;5.27;;;;;;;9.88;26.20;101085.44;5074261;28;20048;-64
2022/03/14 08:46:00;;;;;;;;;;;;;;;9.75;25.03;101093.59;5076721;28;20321;-64
2022/03/14 08:48:30;;;;;;;9.43;4.72;;;;;;;9.75;26.07;101082.53;5068107;28;19927;-64
2022/03/14 08:50:59;;;;;;;7.82;4.57;;;;;;;9.82;26.06;101079.31;5066810;28;20067;-64
2022/03/14 08:53:27;;;;;;;9.57;4.57;;;;;;;9.96;25.68;101098.34;5058400;28;20459;-64
2022/03/14 08:55:58;;;;;;;7.60;3.95;;;;;;;9.99;25.54;101090.78;5056453;28;20487;-64
2022/03/14 08:58:30;;;;;;;9.68;4.85;;;;;;;10.18;25.19;101089.56;5056448;28;20045;-64
2022/03/14 09:01:01;;;;;;;10.27;4.78;;;;;;;10.34;24.99;101072.09;5056239;28;20136;-64
2022/03/14 09:03:30;;;;;;;11.65;4.60;;;;;;;10.40;24.49;101082.44;5067731;28;20371;-64
2022/03/14 09:05:59;;;;;;;6.65;4.13;;;;;;;10.54;24.29;101080.19;5076295;28;20131;-64
2022/03/14 09:08:28;;;;;;;9.32;4.53;;;;;;;10.66;24.15;101086.44;5076407;28;20043;-64
2022/03/14 09:11:00;;;;;;;12.63;4.63;;;;;;;10.77;24.40;101090.06;5076063;28;20049;-64
2022/03/14 09:13:29;;;;;;;9.27;4.70;;;;;;;10.39;24.02;101052.63;5075214;28;20056;-64
2022/03/14 09:15:58;;;;;;;7.40;3.92;;;;;;;10.48;23.92;101091.16;5076291;28;20044;-64
2022/03/14 09:18:31;;;;;;;10.40;3.90;;;;;;;10.66;24.01;101081.31;5074301;28;20032;-64
2022/03/14 09:21:00;;;;;;;10.65;4.28;;;;;;;10.94;23.46;101097.22;5071299;28;20059;-64
2022/03/14 09:23:29;;;;;;;6.93;3.50;;;;;;;10.90;24.12;101095.41;5075130;28;20040;-64
2022/03/14 09:25:59;;;;;;;7.33;3.83;;;;;;;11.12;23.93;101097.59;5075957;28;20086;-64
2022/03/14 09:28:29;;;;;;;8.27;4.05;;;;;;;11.07;23.20;101094.06;5075808;28;20139;-65
2022/03/14 09:30:58;;;;;;;7.15;3.20;;;;;;;10.93;22.95;101092.94;5076236;28;20440;-65
2022/03/14 09:33:30;;;;;;;8.10;3.75;;;;;;;11.19;23.49;101094.31;5075812;28;20098;-64
2022/03/14 09:35:59;;;;;;;11.17;3.20;;;;;;;11.17;23.56;101096.00;5075647;28;20048;-65
2022/03/14 09:38:29;;;;;;;7.05;3.80;;;;;;;11.08;23.75;101088.16;5075899;28;20037;-64
2022/03/14 09:41:03;;;;;;;9.82;4.90;;;;;;;11.33;22.96;101091.19;5076080;28;20570;-64
2022/03/14 09:43:33;;;;;;;5.72;3.35;;;;;;;11.47;22.64;101096.56;5074168;28;20450;-65
2022/03/14 09:46:03;;;;;;;7.90;4.25;;;;;;;11.62;22.76;101091.72;5075270;28;20040;-64
2022/03/14 09:48:36;;;;;;;8.60;3.95;;;;;;;11.34;22.94;101102.28;5074916;28;20052;-63
2022/03/14 09:51:08;;;;;;;8.95;4.03;;;;;;;11.55;22.63;101100.13;5075452;28;20113;-64
2022/03/14 09:53:38;;;;;;;8.68;4.15;;;;;;;11.72;21.97;101114.09;5075548;28;20508;-65
2022/03/14 09:56:10;;;;;;;7.20;4.13;;;;;;;11.43;22.29;101090.53;5075577;28;20521;-65
2022/03/14 09:58:39;;;;;;;7.45;4.07;;;;;;;11.42;22.35;101087.97;5074256;28;20048;-66
2022/03/14 10:01:08;;;;;;;7.00;3.20;;;;;;;11.53;22.40;101085.59;5075186;28;20048;-65
2022/03/14 10:03:38;;;;;;;11.60;4.47;;;;;;;11.59;22.64;101081.44;5074227;28;20098;-65
2022/03/14 10:06:07;;;;;;;6.90;3.38;;;;;;;11.64;22.30;101097.72;5075247;28;20478;-66
2022/03/14 10:08:36;;;;;;;13.18;4.00;;;;;;;11.68;22.26;101086.75;5075089;28;20040;-65
2022/03/14 10:11:08;;;;;;;8.65;4.63;;;;;;;11.63;21.96;101088.34;5074885;28;20040;-65
2022/03/14 10:13:43;;;;;;;9.95;4.75;;;;;;;11.93;21.56;101083.78;5074927;28;20071;-66
2022/03/14 10:16:12;;;;;;;9.50;4.30;;;;;;;11.85;21.77;101085.31;5074790;28;20075;-65
2022/03/14 10:18:54;;;;;;;11.38;3.42;;;;;;;11.95;21.68;101097.44;5075714;28;20372;-65
2022/03/14 10:21:34;;;;;;;8.07;4.03;;;;;;;12.08;21.79;101078.91;5075068;28;20090;-65
2022/03/14 10:24:05;;;;;;;9.15;4.43;;;;;;;12.22;21.73;101081.66;5074564;28;20114;-65
2022/03/14 10:26:35;;;;;;;5.90;3.70;;;;;;;12.07;21.91;101072.03;5074678;28;20055;-65
2022/03/14 10:29:09;;;;;;;7.25;3.90;;;;;;;12.35;21.48;101062.22;5074872;28;20049;-65
2022/03/14 10:31:40;;;;;;;7.75;4.25;;;;;;;12.48;21.78;101074.34;5073464;28;20060;-66
2022/03/14 10:34:11;;;;;;;8.57;4.43;;;;;;;12.37;21.83;101073.34;5074501;28;20079;-65
2022/03/14 10:36:45;;;;;;;8.38;4.70;;;;;;;12.51;22.10;101079.53;5068526;28;20043;-66
2022/03/14 10:39:20;;;;;;;9.32;4.90;;;;;;;12.48;22.31;101074.34;5073690;28;20051;-66
2022/03/14 10:42:03;;;;;;;7.90;4.43;;;;;;;12.56;22.45;101071.06;5054351;28;20053;-65
2022/03/14 10:44:54;;;;;;;7.50;4.00;;;;;;;12.77;22.29;101073.03;5054914;28;20043;-66
2022/03/14 10:47:26;;;;;;;11.18;4.93;;;;;;;13.04;22.48;101078.50;5054284;28;20041;-66
2022/03/14 10:49:55;;;;;;;10.20;5.40;;;;;;;12.87;22.21;101084.25;5054528;28;20049;-64
2022/03/14 10:52:24;;;;;;;6.82;3.95;;;;;;;12.82;22.48;101071.41;5064454;28;20041;-65
2022/03/14 10:54:53;;;;;;;9.47;5.27;;;;;;;13.02;22.44;101080.19;5074348;28;20063;-66
2022/03/14 10:57:25;;;;;;;9.20;4.28;;;;;;;12.79;21.93;101079.91;5074153;28;20040;-65
2022/03/14 10:59:57;;;;;;;10.60;4.53;;;;;;;12.99;22.29;101080.16;5074236;28;20051;-66
2022/03/14 11:02:28;;;;;;;8.13;4.70;;;;;;;12.95;22.06;101098.91;5074030;28;20101;-65
2022/03/14 11:04:59;;;;;;;9.43;4.70;;;;;;;12.94;22.29;101086.94;5073904;28;20091;-67
2022/03/14 11:07:31;;;;;;;8.45;4.65;;;;;;;13.14;22.56;101090.63;5074239;28;20123;-66
2022/03/14 11:10:02;;;;;;;8.38;4.38;;;;;;;13.23;22.18;101090.72;5074677;28;20040;-66
2022/03/14 11:12:32;;;;;;;8.13;4.53;;;;;;;13.20;21.99;101094.94;5074370;28;20052;-66
2022/03/14 11:15:04;;;;;;;10.43;5.30;;;;;;;13.07;22.29;101078.59;5072845;28;20072;-66
2022/03/14 11:17:34;;;;;;;8.90;4.93;;;;;;;13.17;22.20;101080.38;5074043;28;20071;-65
2022/03/14 11:20:24;;;;;;;9.27;4.93;;;;;;;13.29;22.59;101049.75;5073717;28;20037;-66
2022/03/14 11:22:53;;;;;;;10.98;5.05;;;;;;;13.29;22.29;101075.41;5073966;28;20036;-66
2022/03/14 11:25:23;;;;;;;9.65;5.13;;;;;;;13.60;22.19;101083.41;5072061;28;20501;-66
2022/03/14 11:27:55;;;;;;;12.00;4.88;;;;;;;13.79;21.90;101072.47;5053399;28;20060;-66
2022/03/14 11:30:27;;;;;;;11.25;5.30;;;;;;;14.01;21.74;101069.25;5053429;28;20497;-66
2022/03/14 11:32:58;;;;;;;8.63;5.57;;;;;;;13.55;22.12;101072.25;5053602;28;20076;-66
2022/03/14 11:35:29;;;;;;;12.45;5.25;;;;;;;13.74;22.12;101074.13;5053574;28;20120;-65